Time;durP1;ratioP1;P1;durP2;ratioP2;P2;SDS_P1;SDS_P2;PMS_P1;PMS_P2;Temp;Humidity;BMP_temperature;BMP_pressure;BME280_temperature;BME280_humidity;BME280_pressure;Samples;Min_cycle;Max_cycle;Signal;HPM_P1;HPM_P2
2021/09/08 00:01:04;;;;;;;14.85;8.98;;;17.80;60.30;;;;;;5050981;28;20486;-75
2021/09/08 00:03:30;;;;;;;11.15;8.02;;;17.80;60.40;;;;;;5050414;28;20021;-74
2021/09/08 00:05:56;;;;;;;10.60;7.43;;;17.80;60.50;;;;;;5050939;28;20355;-74
2021/09/08 00:08:22;;;;;;;10.68;7.13;;;17.70;60.40;;;;;;5050648;28;20052;-74
2021/09/08 00:10:47;;;;;;;13.07;7.40;;;17.70;60.30;;;;;;5049479;28;20040;-74
2021/09/08 00:13:13;;;;;;;10.68;7.03;;;17.70;60.20;;;;;;5045867;28;20036;-74
2021/09/08 00:15:39;;;;;;;11.32;7.78;;;17.70;60.30;;;;;;5052077;28;20067;-74
2021/09/08 00:18:05;;;;;;;13.40;7.15;;;17.70;60.50;;;;;;5052960;28;20049;-74
2021/09/08 00:20:31;;;;;;;8.30;6.43;;;17.60;60.50;;;;;;5050722;28;20056;-74
2021/09/08 00:22:57;;;;;;;9.73;7.32;;;17.60;60.50;;;;;;5036458;28;20049;-74
2021/09/08 00:25:23;;;;;;;10.15;7.13;;;17.60;60.60;;;;;;5054652;28;20083;-73
2021/09/08 00:27:48;;;;;;;12.48;7.72;;;17.60;60.60;;;;;;5054024;28;20079;-74
2021/09/08 00:30:15;;;;;;;11.98;7.43;;;17.50;60.60;;;;;;5046574;28;20084;-74
2021/09/08 00:32:41;;;;;;;10.55;7.30;;;17.50;60.80;;;;;;5053189;28;20112;-74
2021/09/08 00:35:08;;;;;;;10.18;7.35;;;17.50;60.80;;;;;;5053432;28;20033;-74
2021/09/08 00:37:37;;;;;;;9.73;7.18;;;17.50;60.90;;;;;;5053117;28;20071;-74
2021/09/08 00:40:03;;;;;;;10.77;7.28;;;17.40;60.90;;;;;;5052966;28;20029;-74
2021/09/08 00:42:29;;;;;;;11.45;7.38;;;17.40;60.90;;;;;;5050229;28;20071;-74
2021/09/08 00:44:54;;;;;;;11.10;8.05;;;17.40;61.10;;;;;;5050811;28;20429;-74
2021/09/08 00:47:20;;;;;;;10.40;7.60;;;17.40;61.10;;;;;;5052227;28;20028;-74
2021/09/08 00:49:46;;;;;;;10.75;7.28;;;17.40;61.80;;;;;;5053034;28;20025;-74
2021/09/08 00:52:13;;;;;;;10.57;6.85;;;17.40;61.30;;;;;;5052619;28;20048;-74
2021/09/08 00:54:41;;;;;;;9.75;7.25;;;17.40;61.30;;;;;;5053051;28;20025;-74
2021/09/08 00:57:10;;;;;;;12.38;8.80;;;17.30;61.40;;;;;;5043606;28;20394;-74
2021/09/08 00:59:36;;;;;;;12.38;8.15;;;17.30;62.00;;;;;;5052395;28;20025;-74
2021/09/08 01:02:04;;;;;;;11.00;8.15;;;17.30;62.00;;;;;;5052869;28;20037;-74
2021/09/08 01:04:31;;;;;;;13.38;6.68;;;17.30;61.80;;;;;;5052311;28;20112;-74
2021/09/08 01:07:05;;;;;;;10.98;7.97;;;17.20;61.60;;;;;;5052420;28;20500;-74
2021/09/08 01:09:31;;;;;;;11.25;7.70;;;17.20;61.90;;;;;;5052528;28;20079;-74
2021/09/08 01:11:57;;;;;;;8.30;6.90;;;17.20;61.80;;;;;;5052841;28;20087;-74
2021/09/08 01:14:24;;;;;;;17.38;8.15;;;17.20;61.90;;;;;;5049135;28;20048;-74
2021/09/08 01:16:56;;;;;;;11.52;6.85;;;17.10;62.10;;;;;;5051926;28;20033;-74
2021/09/08 01:19:23;;;;;;;12.43;7.90;;;17.10;62.10;;;;;;5048594;28;20032;-74
2021/09/08 01:21:49;;;;;;;11.40;8.07;;;17.10;62.00;;;;;;5051732;28;20051;-74
2021/09/08 01:24:15;;;;;;;12.82;8.77;;;17.10;62.20;;;;;;5039785;28;20024;-73
2021/09/08 01:26:43;;;;;;;15.77;7.78;;;17.10;62.30;;;;;;5051944;28;20122;-74
2021/09/08 01:29:10;;;;;;;11.68;7.90;;;17.00;62.20;;;;;;5049020;28;20029;-74
2021/09/08 01:31:36;;;;;;;14.33;7.93;;;17.00;62.20;;;;;;5008107;28;1279749;-74
2021/09/08 01:34:04;;;;;;;10.88;7.40;;;17.00;62.20;;;;;;5052899;28;20029;-74
2021/09/08 01:36:40;;;;;;;11.75;8.23;;;17.00;62.20;;;;;;5053733;28;20044;-74
2021/09/08 01:39:06;;;;;;;10.13;7.03;;;16.90;62.70;;;;;;5043201;28;20452;-74
2021/09/08 01:41:32;;;;;;;11.32;7.70;;;16.90;62.40;;;;;;5053629;28;20032;-74
2021/09/08 01:43:58;;;;;;;14.07;8.60;;;16.90;62.60;;;;;;5038586;28;20378;-74
2021/09/08 01:46:24;;;;;;;11.60;8.10;;;16.90;62.60;;;;;;5050944;28;20382;-74
2021/09/08 01:48:50;;;;;;;12.93;8.20;;;16.90;62.80;;;;;;5052849;28;20092;-74
2021/09/08 01:51:16;;;;;;;12.60;7.95;;;16.90;62.90;;;;;;5052946;28;20056;-74
2021/09/08 01:53:42;;;;;;;12.77;6.88;;;16.80;63.10;;;;;;5052831;28;20025;-74
2021/09/08 01:56:08;;;;;;;9.63;7.63;;;16.80;62.90;;;;;;5052992;28;20033;-74
2021/09/08 01:58:35;;;;;;;12.05;7.78;;;16.80;63.00;;;;;;5052204;28;20509;-74
2021/09/08 02:01:04;;;;;;;9.25;6.28;;;16.80;63.10;;;;;;5052819;28;20025;-74
2021/09/08 02:03:31;;;;;;;13.13;7.80;;;16.70;62.90;;;;;;5052612;28;20090;-74
2021/09/08 02:05:57;;;;;;;11.80;7.90;;;16.70;62.90;;;;;;5052863;28;20017;-74
2021/09/08 02:08:23;;;;;;;11.25;7.63;;;16.70;63.20;;;;;;5052670;28;20025;-74
2021/09/08 02:10:49;;;;;;;12.70;7.35;;;16.70;63.40;;;;;;5050812;28;20047;-74
2021/09/08 02:13:15;;;;;;;10.35;7.18;;;16.70;63.40;;;;;;5048097;28;20402;-74
2021/09/08 02:15:41;;;;;;;11.27;7.75;;;16.70;63.70;;;;;;5050324;28;20261;-74
2021/09/08 02:18:07;;;;;;;10.10;7.32;;;16.70;63.60;;;;;;5034639;28;20025;-74
2021/09/08 02:20:32;;;;;;;9.52;7.10;;;16.70;63.90;;;;;;5051967;28;20029;-74
2021/09/08 02:22:58;;;;;;;9.55;6.85;;;16.70;63.60;;;;;;5034297;28;20025;-74
2021/09/08 02:25:24;;;;;;;11.93;8.10;;;16.60;63.70;;;;;;5051780;28;20029;-74
2021/09/08 02:27:50;;;;;;;10.93;7.07;;;16.70;63.90;;;;;;5051267;28;20024;-74
2021/09/08 02:30:16;;;;;;;8.38;6.38;;;16.60;63.60;;;;;;5051834;28;20044;-74
2021/09/08 02:32:42;;;;;;;7.68;6.10;;;16.60;63.80;;;;;;5038362;28;20429;-74
2021/09/08 02:35:08;;;;;;;12.70;7.85;;;16.60;63.60;;;;;;5044323;28;20143;-74
2021/09/08 02:37:34;;;;;;;10.90;7.47;;;16.60;64.00;;;;;;5051491;28;20496;-74
2021/09/08 02:40:00;;;;;;;11.45;8.20;;;16.60;64.20;;;;;;5051059;28;20108;-74
2021/09/08 02:42:26;;;;;;;13.52;7.25;;;16.60;64.40;;;;;;5042153;28;20057;-74
2021/09/08 02:44:51;;;;;;;14.52;8.00;;;16.60;64.50;;;;;;5051135;28;20021;-74
2021/09/08 02:47:17;;;;;;;12.75;8.23;;;16.60;64.50;;;;;;5046469;28;20032;-74
2021/09/08 02:49:43;;;;;;;12.00;8.30;;;16.60;64.60;;;;;;5052018;28;20021;-74
2021/09/08 02:52:09;;;;;;;11.52;8.20;;;16.60;64.40;;;;;;5050826;28;20040;-75
2021/09/08 02:54:35;;;;;;;12.00;8.30;;;16.60;64.30;;;;;;5051331;28;20032;-74
2021/09/08 02:57:01;;;;;;;12.55;8.02;;;16.60;64.30;;;;;;5044903;28;20498;-74
2021/09/08 02:59:27;;;;;;;9.45;7.20;;;16.60;64.50;;;;;;5051199;28;20039;-74
2021/09/08 03:01:54;;;;;;;12.00;8.48;;;16.60;64.20;;;;;;5033429;28;20025;-74
2021/09/08 03:04:20;;;;;;;10.60;7.97;;;16.50;64.30;;;;;;5050880;28;20486;-74
2021/09/08 03:06:48;;;;;;;11.32;7.50;;;16.50;64.20;;;;;;5051225;28;20025;-74
2021/09/08 03:09:14;;;;;;;13.13;8.25;;;16.50;64.10;;;;;;5049080;28;20040;-74
2021/09/08 03:11:41;;;;;;;12.80;7.55;;;16.50;64.20;;;;;;5051154;28;20040;-75
2021/09/08 03:14:06;;;;;;;12.48;9.13;;;16.50;64.20;;;;;;5051010;28;20031;-74
2021/09/08 03:16:32;;;;;;;11.63;8.50;;;16.50;64.60;;;;;;5050204;28;20456;-74
2021/09/08 03:18:58;;;;;;;10.43;8.52;;;16.40;64.60;;;;;;5050859;28;20487;-74
2021/09/08 03:21:24;;;;;;;16.23;7.20;;;16.50;64.80;;;;;;5050862;28;20060;-75
2021/09/08 03:23:49;;;;;;;19.65;9.05;;;16.40;64.60;;;;;;5050228;28;20355;-74
2021/09/08 03:26:15;;;;;;;13.68;8.43;;;16.40;64.80;;;;;;5048577;28;20108;-75
2021/09/08 03:28:41;;;;;;;14.07;7.93;;;16.40;64.60;;;;;;5045348;28;20032;-74
2021/09/08 03:31:07;;;;;;;9.65;6.93;;;16.40;64.60;;;;;;5050624;28;20505;-74
2021/09/08 03:33:33;;;;;;;10.55;8.18;;;16.40;64.50;;;;;;5050738;28;20382;-74
2021/09/08 03:35:58;;;;;;;11.93;7.88;;;16.40;64.60;;;;;;5050517;28;20028;-75
2021/09/08 03:38:24;;;;;;;11.20;8.20;;;16.30;64.70;;;;;;5050428;28;20028;-74
2021/09/08 03:40:50;;;;;;;12.38;9.02;;;16.30;64.70;;;;;;5050858;28;20024;-74
2021/09/08 03:43:16;;;;;;;12.52;7.68;;;16.30;65.00;;;;;;5050247;28;20028;-74
2021/09/08 03:45:42;;;;;;;11.07;8.02;;;16.30;65.00;;;;;;5049284;28;20025;-74
2021/09/08 03:48:08;;;;;;;12.63;8.88;;;16.30;64.90;;;;;;5050111;28;20032;-74
2021/09/08 03:50:34;;;;;;;14.52;8.95;;;16.20;64.90;;;;;;5049927;28;20096;-74
2021/09/08 03:53:00;;;;;;;12.88;9.25;;;16.20;65.00;;;;;;5050928;28;20027;-74
2021/09/08 03:55:25;;;;;;;12.80;8.98;;;16.20;65.10;;;;;;5051167;28;20041;-74
2021/09/08 03:57:51;;;;;;;14.52;8.88;;;16.20;65.40;;;;;;5050685;28;20028;-74
2021/09/08 04:00:17;;;;;;;12.55;8.48;;;16.20;65.30;;;;;;5050580;28;20032;-75
2021/09/08 04:02:43;;;;;;;11.90;7.60;;;16.20;65.30;;;;;;5050400;28;20064;-75
2021/09/08 04:05:09;;;;;;;13.82;9.27;;;16.10;65.10;;;;;;5050534;28;20040;-75
2021/09/08 04:07:35;;;;;;;17.85;9.02;;;16.20;65.20;;;;;;5050248;28;20025;-74
2021/09/08 04:10:01;;;;;;;12.80;7.78;;;16.10;65.20;;;;;;5050771;28;20505;-74
2021/09/08 04:12:27;;;;;;;11.95;8.18;;;16.10;65.30;;;;;;5050445;28;20352;-74
2021/09/08 04:14:53;;;;;;;12.75;8.20;;;16.10;65.20;;;;;;5050285;28;20032;-75
2021/09/08 04:17:20;;;;;;;16.83;9.07;;;16.10;65.10;;;;;;5048612;28;20506;-74
2021/09/08 04:19:45;;;;;;;19.02;9.52;;;16.10;65.40;;;;;;5049786;28;20029;-74
2021/09/08 04:22:11;;;;;;;12.80;8.60;;;16.10;65.50;;;;;;5043906;28;20025;-74
2021/09/08 04:24:37;;;;;;;12.57;8.50;;;16.10;65.90;;;;;;5050384;28;20040;-74
2021/09/08 04:27:03;;;;;;;13.10;9.43;;;16.10;65.60;;;;;;5050802;28;20033;-74
2021/09/08 04:29:29;;;;;;;14.65;10.18;;;16.00;65.80;;;;;;5049978;28;20114;-75
2021/09/08 04:31:55;;;;;;;13.93;9.85;;;16.00;65.90;;;;;;5049686;28;20115;-74
2021/09/08 04:34:21;;;;;;;17.90;10.18;;;16.00;66.00;;;;;;5050107;28;20025;-74
2021/09/08 04:36:46;;;;;;;17.40;10.60;;;16.00;66.00;;;;;;5050500;28;20052;-74
2021/09/08 04:39:12;;;;;;;17.50;10.75;;;16.00;66.30;;;;;;5039076;28;20506;-75
2021/09/08 04:41:38;;;;;;;21.67;10.20;;;16.00;66.70;;;;;;5050156;28;20044;-74
2021/09/08 04:44:04;;;;;;;18.02;10.93;;;16.00;66.70;;;;;;5048527;28;20029;-74
2021/09/08 04:46:30;;;;;;;15.32;9.65;;;16.00;66.60;;;;;;5049971;28;20024;-74
2021/09/08 04:48:56;;;;;;;15.75;9.57;;;16.00;66.40;;;;;;5050249;28;20027;-74
2021/09/08 04:51:22;;;;;;;15.02;8.95;;;16.00;66.40;;;;;;5047139;28;20040;-74
2021/09/08 04:53:48;;;;;;;14.73;8.73;;;16.00;67.10;;;;;;5050318;28;20033;-74
2021/09/08 04:56:14;;;;;;;17.13;10.15;;;16.00;66.40;;;;;;5050101;28;20102;-74
2021/09/08 04:58:40;;;;;;;17.25;10.95;;;16.00;66.60;;;;;;5049501;28;20053;-75
2021/09/08 05:01:05;;;;;;;18.05;10.90;;;16.00;66.90;;;;;;5050861;28;20389;-74
2021/09/08 05:03:32;;;;;;;17.88;9.73;;;16.00;67.00;;;;;;5051629;28;20025;-74
2021/09/08 05:05:59;;;;;;;20.60;11.13;;;16.00;66.90;;;;;;5053633;28;20083;-74
2021/09/08 05:08:25;;;;;;;15.57;10.02;;;16.00;67.30;;;;;;5053302;28;20041;-75
2021/09/08 05:10:50;;;;;;;14.90;9.70;;;16.10;67.20;;;;;;5053781;28;20040;-74
2021/09/08 05:13:16;;;;;;;14.52;9.25;;;16.10;67.20;;;;;;5053378;28;20055;-75
2021/09/08 05:15:42;;;;;;;16.15;9.55;;;16.10;67.10;;;;;;5053270;28;20119;-74
2021/09/08 05:18:08;;;;;;;14.73;9.00;;;16.10;67.10;;;;;;5048857;28;20033;-74
2021/09/08 05:20:34;;;;;;;12.98;9.40;;;16.20;67.10;;;;;;5052873;28;20051;-74
2021/09/08 05:22:59;;;;;;;16.38;9.55;;;16.20;67.10;;;;;;5053376;28;20021;-74
2021/09/08 05:25:25;;;;;;;16.08;10.13;;;16.20;67.10;;;;;;5052963;28;20436;-74
2021/09/08 05:27:51;;;;;;;20.48;9.70;;;16.30;67.20;;;;;;5049127;28;20133;-75
2021/09/08 05:30:17;;;;;;;20.08;9.88;;;16.30;67.20;;;;;;5052065;28;20083;-75
2021/09/08 05:32:43;;;;;;;14.60;9.05;;;16.40;67.40;;;;;;5053462;28;20025;-74
2021/09/08 05:35:12;;;;;;;13.35;9.65;;;16.40;67.40;;;;;;5052410;28;20017;-74
2021/09/08 05:37:39;;;;;;;13.23;9.18;;;16.50;67.40;;;;;;5046902;28;20029;-74
2021/09/08 05:40:06;;;;;;;21.58;10.27;;;16.50;67.40;;;;;;5055721;28;20025;-75
2021/09/08 05:42:32;;;;;;;19.60;10.48;;;16.60;67.50;;;;;;5053236;28;20104;-75
2021/09/08 05:44:58;;;;;;;19.85;10.32;;;16.60;67.50;;;;;;5051290;28;20099;-74
2021/09/08 05:47:23;;;;;;;18.13;9.95;;;16.60;67.30;;;;;;5053306;28;20076;-75
2021/09/08 05:49:49;;;;;;;16.95;10.02;;;16.70;67.20;;;;;;5054059;28;20025;-75
2021/09/08 05:52:15;;;;;;;20.85;10.13;;;16.80;67.20;;;;;;5053476;28;20325;-75
2021/09/08 05:54:41;;;;;;;16.10;10.10;;;16.80;67.20;;;;;;5053443;28;20052;-75
2021/09/08 05:57:07;;;;;;;21.08;10.25;;;16.90;67.20;;;;;;5052771;28;20029;-74
2021/09/08 05:59:33;;;;;;;21.20;10.38;;;16.90;67.10;;;;;;5038929;28;20352;-74
2021/09/08 06:01:59;;;;;;;16.30;9.50;;;17.00;67.10;;;;;;5052820;28;20032;-74
2021/09/08 06:04:25;;;;;;;35.75;10.57;;;17.10;66.90;;;;;;5053077;28;20018;-75
2021/09/08 06:06:53;;;;;;;34.65;10.02;;;17.10;66.80;;;;;;5053432;28;20025;-74
2021/09/08 06:09:19;;;;;;;28.08;10.75;;;17.20;66.80;;;;;;5053351;28;20067;-75
2021/09/08 06:11:45;;;;;;;28.60;10.45;;;17.30;66.80;;;;;;5053986;28;20174;-74
2021/09/08 06:14:12;;;;;;;29.20;10.90;;;17.30;66.50;;;;;;5052158;28;20064;-74
2021/09/08 06:16:39;;;;;;;19.42;9.98;;;17.40;66.60;;;;;;5053046;28;20554;-74
2021/09/08 06:19:06;;;;;;;26.45;10.73;;;17.50;66.40;;;;;;5053747;28;20032;-75
2021/09/08 06:21:32;;;;;;;21.05;9.90;;;17.50;66.30;;;;;;5053000;28;20029;-75
2021/09/08 06:23:57;;;;;;;23.02;10.00;;;17.60;66.30;;;;;;5053188;28;20017;-74
2021/09/08 06:26:24;;;;;;;17.95;10.32;;;17.60;66.10;;;;;;5054516;28;20029;-74
2021/09/08 06:28:51;;;;;;;17.45;9.38;;;17.70;66.10;;;;;;5042705;28;20029;-74
2021/09/08 06:31:18;;;;;;;29.88;12.05;;;17.80;66.00;;;;;;5051571;28;20048;-74
2021/09/08 06:33:44;;;;;;;29.48;12.25;;;17.90;66.10;;;;;;5051839;28;20036;-74
2021/09/08 06:36:09;;;;;;;23.33;11.25;;;17.90;65.90;;;;;;5040063;28;20032;-74
2021/09/08 06:38:35;;;;;;;25.15;10.93;;;18.00;65.70;;;;;;5052400;28;20032;-74
2021/09/08 06:41:02;;;;;;;20.23;11.20;;;18.10;65.60;;;;;;5052206;28;20037;-74
2021/09/08 06:43:28;;;;;;;25.88;11.50;;;18.10;65.40;;;;;;5052320;28;20071;-74
2021/09/08 06:45:54;;;;;;;27.70;10.73;;;18.20;65.20;;;;;;5053335;28;20394;-74
2021/09/08 06:48:20;;;;;;;26.48;12.82;;;18.30;65.20;;;;;;5052239;28;20041;-74
2021/09/08 06:50:45;;;;;;;30.55;12.43;;;18.40;65.00;;;;;;5052176;28;20064;-74
2021/09/08 06:53:11;;;;;;;32.63;11.85;;;18.40;64.80;;;;;;5050438;28;20029;-75
2021/09/08 06:55:37;;;;;;;33.40;12.80;;;18.50;64.60;;;;;;5059010;28;20041;-74
2021/09/08 06:58:03;;;;;;;21.55;12.15;;;18.60;64.50;;;;;;5049748;28;20517;-74
2021/09/08 07:00:28;;;;;;;20.88;11.07;;;18.70;64.30;;;;;;5038829;28;20024;-74
2021/09/08 07:02:54;;;;;;;25.27;12.18;;;18.70;64.10;;;;;;5050886;28;20033;-74
2021/09/08 07:05:21;;;;;;;31.10;12.68;;;18.80;64.00;;;;;;5051808;28;20029;-74
2021/09/08 07:07:47;;;;;;;31.33;11.98;;;18.80;63.80;;;;;;5038866;28;20028;-74
2021/09/08 07:10:13;;;;;;;19.92;10.65;;;18.90;63.60;;;;;;5052921;28;20475;-74
2021/09/08 07:12:39;;;;;;;19.38;10.15;;;19.00;63.40;;;;;;5052465;28;20017;-74
2021/09/08 07:15:05;;;;;;;24.23;11.50;;;19.10;63.30;;;;;;5052551;28;20021;-74
2021/09/08 07:17:31;;;;;;;28.83;13.05;;;19.10;62.90;;;;;;5051480;28;20025;-74
2021/09/08 07:19:57;;;;;;;25.08;10.75;;;19.20;62.70;;;;;;5052249;28;20021;-74
2021/09/08 07:22:23;;;;;;;19.23;10.63;;;19.30;62.60;;;;;;5051650;28;20108;-74
2021/09/08 07:24:48;;;;;;;19.27;10.27;;;19.40;62.50;;;;;;5051848;28;20096;-74
2021/09/08 07:27:14;;;;;;;25.95;11.45;;;19.40;62.10;;;;;;5052737;28;20028;-75
2021/09/08 07:29:40;;;;;;;16.60;10.15;;;19.50;61.90;;;;;;5052165;28;20048;-74
2021/09/08 07:32:08;;;;;;;22.63;11.48;;;19.60;61.80;;;;;;5052616;28;20041;-74
2021/09/08 07:34:34;;;;;;;37.20;11.38;;;19.60;61.40;;;;;;5052103;28;20025;-74
2021/09/08 07:37:00;;;;;;;19.38;9.27;;;19.70;60.90;;;;;;5051847;28;20033;-74
2021/09/08 07:39:25;;;;;;;17.05;9.70;;;19.80;60.90;;;;;;5052261;28;20036;-74
2021/09/08 07:41:51;;;;;;;18.52;11.05;;;19.90;60.50;;;;;;5052145;28;20029;-74
2021/09/08 07:44:17;;;;;;;18.33;9.80;;;20.00;60.00;;;;;;5039977;28;20084;-75
2021/09/08 07:46:43;;;;;;;17.25;9.75;;;20.00;59.80;;;;;;5051268;28;20043;-75
2021/09/08 07:49:09;;;;;;;21.30;9.75;;;20.10;59.10;;;;;;5052549;28;20025;-75
2021/09/08 07:51:35;;;;;;;12.98;8.60;;;20.20;59.20;;;;;;5051988;28;20104;-75
2021/09/08 07:54:01;;;;;;;17.23;10.23;;;20.30;58.80;;;;;;5051763;28;20075;-75
2021/09/08 07:56:27;;;;;;;15.00;9.20;;;20.40;58.50;;;;;;5034622;28;20033;-74
2021/09/08 07:58:53;;;;;;;19.50;10.00;;;20.50;58.00;;;;;;5051831;28;20124;-74
2021/09/08 08:01:18;;;;;;;13.30;8.43;;;20.60;57.60;;;;;;5052065;28;20112;-75
2021/09/08 08:03:45;;;;;;;15.55;8.85;;;20.70;57.50;;;;;;5051925;28;20024;-75
2021/09/08 08:06:11;;;;;;;11.55;8.00;;;20.80;57.60;;;;;;5052282;28;20021;-75
2021/09/08 08:08:37;;;;;;;13.15;7.40;;;20.90;56.80;;;;;;5051720;28;20086;-75
2021/09/08 08:11:02;;;;;;;16.95;7.55;;;21.00;56.70;;;;;;5042478;28;20109;-75
2021/09/08 08:13:28;;;;;;;47.47;10.70;;;21.10;55.60;;;;;;5051326;28;20045;-75
2021/09/08 08:15:54;;;;;;;16.05;8.20;;;21.30;55.10;;;;;;5052791;28;20029;-75
2021/09/08 08:18:21;;;;;;;44.33;11.55;;;21.40;54.40;;;;;;5051183;28;20021;-75
2021/09/08 08:20:46;;;;;;;12.48;6.90;;;21.50;53.70;;;;;;5051900;28;20430;-75
2021/09/08 08:23:12;;;;;;;9.60;6.80;;;21.60;53.40;;;;;;5062071;28;20024;-75
2021/09/08 08:25:38;;;;;;;11.80;6.13;;;21.70;52.90;;;;;;5052157;28;20017;-75
2021/09/08 08:28:04;;;;;;;15.60;6.95;;;21.80;53.40;;;;;;5052229;28;20071;-76
2021/09/08 08:30:32;;;;;;;9.23;6.38;;;22.00;52.20;;;;;;5052093;28;20041;-76
2021/09/08 08:32:58;;;;;;;9.18;6.40;;;22.10;52.10;;;;;;5050689;28;20029;-75
2021/09/08 08:35:24;;;;;;;12.05;6.50;;;22.20;52.30;;;;;;5052173;28;20025;-76
2021/09/08 08:37:51;;;;;;;13.23;7.00;;;22.30;51.80;;;;;;5055280;28;22038;-76
2021/09/08 08:40:19;;;;;;;8.77;6.50;;;22.50;51.40;;;;;;5055395;28;20041;-76
2021/09/08 08:42:46;;;;;;;11.70;6.53;;;22.50;50.20;;;;;;5055422;28;20437;-76
2021/09/08 08:45:13;;;;;;;11.85;7.38;;;22.70;50.20;;;;;;5055433;28;20532;-76
2021/09/08 08:47:39;;;;;;;15.73;9.25;;;22.80;50.40;;;;;;5055505;28;20029;-76
2021/09/08 08:50:10;;;;;;;33.65;17.08;;;22.90;50.20;;;;;;5055452;28;20029;-75
2021/09/08 08:52:35;;;;;;;13.90;7.68;;;23.00;49.40;;;;;;5055536;28;20544;-75
2021/09/08 08:55:02;;;;;;;13.05;6.82;;;23.10;48.50;;;;;;5055466;28;20024;-75
2021/09/08 08:57:28;;;;;;;12.32;6.78;;;23.20;48.00;;;;;;5037911;28;20390;-75
2021/09/08 08:59:54;;;;;;;8.65;5.75;;;23.30;47.50;;;;;;5055436;28;20082;-76
2021/09/08 09:02:30;;;;;;;9.15;5.88;;;23.30;46.40;;;;;;5055445;28;20033;-75
2021/09/08 09:04:58;;;;;;;10.05;6.53;;;23.40;46.90;;;;;;5055589;28;20148;-76
2021/09/08 09:07:32;;;;;;;15.02;6.30;;;23.50;46.70;;;;;;5055570;28;20025;-76
2021/09/08 09:10:06;;;;;;;10.10;6.65;;;23.60;46.90;;;;;;5055657;28;20029;-75
2021/09/08 09:12:38;;;;;;;13.45;5.90;;;23.70;46.40;;;;;;5055575;28;20036;-74
2021/09/08 09:15:10;;;;;;;9.75;6.20;;;23.70;46.60;;;;;;5037577;28;20124;-74
2021/09/08 09:17:37;;;;;;;11.38;5.97;;;23.80;45.80;;;;;;5055042;28;20090;-75
2021/09/08 09:20:11;;;;;;;9.00;6.40;;;23.90;45.00;;;;;;5055260;28;20356;-75
2021/09/08 09:22:40;;;;;;;12.73;5.88;;;23.90;45.00;;;;;;5034183;28;20096;-72
2021/09/08 09:25:08;;;;;;;7.55;5.60;;;24.00;45.70;;;;;;5055193;28;20017;-72
2021/09/08 09:27:43;;;;;;;8.68;5.60;;;24.10;45.70;;;;;;5055235;28;20088;-72
2021/09/08 09:30:11;;;;;;;10.63;6.35;;;24.20;45.60;;;;;;5054886;28;20116;-72
2021/09/08 09:32:40;;;;;;;9.70;5.40;;;24.20;44.60;;;;;;5055504;28;20461;-72
2021/09/08 09:35:08;;;;;;;18.02;6.00;;;24.30;44.20;;;;;;5055126;28;20024;-72
2021/09/08 09:37:34;;;;;;;8.95;5.68;;;24.30;43.60;;;;;;5053643;28;20036;-73
2021/09/08 09:40:03;;;;;;;7.07;5.50;;;24.40;43.80;;;;;;5055053;28;20111;-73
2021/09/08 09:42:31;;;;;;;11.07;6.03;;;24.50;43.90;;;;;;5055233;28;20029;-73
2021/09/08 09:45:06;;;;;;;12.95;5.75;;;24.50;43.80;;;;;;5054909;28;20021;-73
2021/09/08 09:47:36;;;;;;;6.82;5.15;;;24.60;43.50;;;;;;5037205;28;20417;-73
2021/09/08 09:50:06;;;;;;;12.38;5.50;;;24.70;44.30;;;;;;5051552;28;20481;-73
2021/09/08 09:52:33;;;;;;;9.30;5.80;;;24.80;43.60;;;;;;5035855;28;20430;-73
2021/09/08 09:55:00;;;;;;;12.02;6.25;;;24.80;42.70;;;;;;5053505;28;20413;-74
2021/09/08 09:57:26;;;;;;;7.90;5.70;;;24.90;42.30;;;;;;5052550;28;20032;-73
2021/09/08 09:59:53;;;;;;;6.32;5.15;;;25.00;42.40;;;;;;5053576;28;20112;-74
2021/09/08 10:02:19;;;;;;;10.02;6.72;;;25.00;42.70;;;;;;5053711;28;20025;-73
2021/09/08 10:04:48;;;;;;;5.82;4.85;;;25.10;42.50;;;;;;5053413;28;20378;-74
2021/09/08 10:07:19;;;;;;;8.70;5.22;;;25.20;42.30;;;;;;5053649;28;20017;-74
2021/09/08 10:09:49;;;;;;;8.68;5.60;;;25.20;41.00;;;;;;5053337;28;20471;-74
2021/09/08 10:12:19;;;;;;;7.90;5.70;;;25.30;40.80;;;;;;5053491;28;20342;-73
2021/09/08 10:14:45;;;;;;;12.88;5.60;;;25.30;40.90;;;;;;5053293;28;20489;-74
2021/09/08 10:17:11;;;;;;;7.80;5.75;;;25.30;39.70;;;;;;5053469;28;20103;-73
2021/09/08 10:19:41;;;;;;;11.45;5.55;;;25.40;40.00;;;;;;5041144;28;20167;-73
2021/09/08 10:22:09;;;;;;;9.80;5.63;;;25.50;40.20;;;;;;5052775;28;20595;-74
2021/09/08 10:24:35;;;;;;;11.18;5.55;;;25.50;39.70;;;;;;5053275;28;20074;-73
2021/09/08 10:27:18;;;;;;;11.75;4.78;;;25.50;39.80;;;;;;5051961;28;20036;-73
2021/09/08 10:29:49;;;;;;;9.65;5.20;;;25.60;38.70;;;;;;5052362;28;20591;-73
2021/09/08 10:32:16;;;;;;;7.80;5.03;;;25.70;39.10;;;;;;5052776;28;20037;-74
2021/09/08 10:34:43;;;;;;;7.30;5.28;;;25.70;39.80;;;;;;5052455;28;20064;-74
2021/09/08 10:37:11;;;;;;;7.53;5.15;;;25.80;39.60;;;;;;5052435;28;20490;-74
2021/09/08 10:39:40;;;;;;;7.32;5.10;;;25.80;39.20;;;;;;5052623;28;20033;-74
2021/09/08 10:42:05;;;;;;;6.03;4.80;;;25.90;40.00;;;;;;5052725;28;20025;-74
2021/09/08 10:44:53;;;;;;;8.38;5.10;;;25.90;38.90;;;;;;5052593;28;20389;-74
2021/09/08 10:47:36;;;;;;;10.27;5.13;;;26.00;39.10;;;;;;5052593;28;20375;-74
2021/09/08 10:50:06;;;;;;;6.78;5.18;;;26.00;39.30;;;;;;5043399;28;20545;-74
2021/09/08 10:52:34;;;;;;;7.82;5.30;;;26.10;39.00;;;;;;5052732;28;20043;-74
2021/09/08 10:55:00;;;;;;;11.75;5.75;;;26.20;39.30;;;;;;5052582;28;20029;-74
2021/09/08 10:57:41;;;;;;;14.55;4.78;;;26.20;38.00;;;;;;5052630;28;20494;-74
2021/09/08 11:00:12;;;;;;;16.83;4.32;;;26.20;39.00;;;;;;5051853;28;20033;-74
2021/09/08 11:02:39;;;;;;;8.48;4.68;;;26.30;39.00;;;;;;5051878;28;20036;-74
2021/09/08 11:05:05;;;;;;;12.52;5.30;;;26.30;38.00;;;;;;5051981;28;20033;-74
2021/09/08 11:07:31;;;;;;;9.63;5.38;;;26.40;37.70;;;;;;5052314;28;20029;-74
2021/09/08 11:09:57;;;;;;;7.63;5.55;;;26.40;38.40;;;;;;5053752;28;20463;-74
2021/09/08 11:12:53;;;;;;;5.93;4.60;;;26.40;37.60;;;;;;5052852;28;20032;-74
2021/09/08 11:15:29;;;;;;;5.57;4.68;;;26.50;38.40;;;;;;5051680;28;20029;-74
2021/09/08 11:17:55;;;;;;;10.07;5.10;;;26.60;36.70;;;;;;5032870;28;20498;-74
2021/09/08 11:20:22;;;;;;;8.50;4.72;;;26.60;35.70;;;;;;5040410;28;20041;-74
2021/09/08 11:22:59;;;;;;;10.90;5.38;;;26.60;35.60;;;;;;5053250;28;20021;-74
2021/09/08 11:25:29;;;;;;;7.35;5.35;;;26.60;36.40;;;;;;5052120;28;20029;-74
2021/09/08 11:27:55;;;;;;;6.13;5.03;;;26.70;36.50;;;;;;5052248;28;20025;-74
2021/09/08 11:30:21;;;;;;;7.90;4.75;;;26.70;35.00;;;;;;5051415;28;20083;-74
2021/09/08 11:32:57;;;;;;;6.72;4.40;;;26.80;34.00;;;;;;5052645;28;20095;-74
2021/09/08 11:35:47;;;;;;;14.70;5.10;;;26.80;35.20;;;;;;5052856;28;20083;-74
2021/09/08 11:38:22;;;;;;;8.45;4.90;;;26.90;35.50;;;;;;5052920;28;20482;-73
2021/09/08 11:41:01;;;;;;;7.05;4.25;;;26.90;35.50;;;;;;5052789;28;20056;-73
2021/09/08 11:43:37;;;;;;;6.68;4.47;;;27.00;35.70;;;;;;5052858;28;20017;-74
2021/09/08 11:46:21;;;;;;;6.10;4.45;;;27.00;36.30;;;;;;5052683;28;20498;-73
2021/09/08 11:49:07;;;;;;;8.93;4.35;;;27.00;36.20;;;;;;5052840;28;20045;-74
2021/09/08 11:51:39;;;;;;;10.63;5.18;;;27.00;34.90;;;;;;5052887;28;20079;-74
2021/09/08 11:54:07;;;;;;;6.63;4.85;;;27.10;33.40;;;;;;5035017;28;20079;-74
2021/09/08 11:56:37;;;;;;;7.07;4.30;;;27.10;33.90;;;;;;5052801;28;20017;-74
2021/09/08 11:59:04;;;;;;;14.85;5.10;;;27.20;34.20;;;;;;5052864;28;20056;-74
2021/09/08 12:01:35;;;;;;;5.90;4.53;;;27.20;33.50;;;;;;5052632;28;20032;-74
2021/09/08 12:04:02;;;;;;;7.75;4.70;;;27.20;33.60;;;;;;5052733;28;20056;-74
2021/09/08 12:06:30;;;;;;;5.72;4.25;;;27.30;33.70;;;;;;5052690;28;20017;-74
2021/09/08 12:09:11;;;;;;;7.45;4.43;;;27.30;33.40;;;;;;5052789;28;20382;-74
2021/09/08 12:11:53;;;;;;;8.85;4.95;;;27.40;33.70;;;;;;5054314;28;20033;-74
2021/09/08 12:14:26;;;;;;;7.28;4.93;;;27.40;33.60;;;;;;5056591;28;20025;-75
2021/09/08 12:16:57;;;;;;;10.17;4.50;;;27.40;33.80;;;;;;5038743;28;20341;-75
2021/09/08 12:19:34;;;;;;;6.50;4.60;;;27.40;33.70;;;;;;5056497;28;20021;-75
2021/09/08 12:22:03;;;;;;;5.72;4.47;;;27.50;33.50;;;;;;5056412;28;20032;-75
2021/09/08 12:24:32;;;;;;;6.70;4.22;;;27.50;33.00;;;;;;5056286;28;20021;-74
2021/09/08 12:26:58;;;;;;;6.03;4.65;;;27.60;31.90;;;;;;5056472;28;20021;-73
2021/09/08 12:29:25;;;;;;;8.27;5.25;;;27.60;32.30;;;;;;5056248;28;20025;-74
2021/09/08 12:32:00;;;;;;;6.25;4.80;;;27.60;32.30;;;;;;5034922;28;20049;-75
2021/09/08 12:34:47;;;;;;;7.10;3.78;;;27.70;32.60;;;;;;5036596;28;20502;-75
2021/09/08 12:37:13;;;;;;;10.18;4.30;;;27.70;32.80;;;;;;5036260;28;20025;-75
2021/09/08 12:39:50;;;;;;;11.30;5.13;;;27.80;32.80;;;;;;5036235;28;20075;-75